sensor_id;sensor_type;location;lat;lon;timestamp;temperature;humidity
16128;DHT22;8168;49.036;7.690;2023-07-02T00:02:12;16.10;99.90
16128;DHT22;8168;49.036;7.690;2023-07-02T00:04:43;16.10;99.90
16128;DHT22;8168;49.036;7.690;2023-07-02T00:07:14;16.00;99.90
16128;DHT22;8168;49.036;7.690;2023-07-02T00:09:45;16.00;99.90
16128;DHT22;8168;49.036;7.690;2023-07-02T00:12:15;16.00;99.90
16128;DHT22;8168;49.036;7.690;2023-07-02T00:14:46;16.00;99.90
16128;DHT22;8168;49.036;7.690;2023-07-02T00:17:16;16.00;99.90
16128;DHT22;8168;49.036;7.690;2023-07-02T00:19:47;15.90;99.90
16128;DHT22;8168;49.036;7.690;2023-07-02T00:22:21;15.90;99.90
16128;DHT22;8168;49.036;7.690;2023-07-02T00:24:52;15.90;99.90
16128;DHT22;8168;49.036;7.690;2023-07-02T00:27:26;15.90;99.90
16128;DHT22;8168;49.036;7.690;2023-07-02T00:29:56;15.90;99.90
16128;DHT22;8168;49.036;7.690;2023-07-02T00:32:27;15.90;99.90
16128;DHT22;8168;49.036;7.690;2023-07-02T00:34:58;15.90;99.90
16128;DHT22;8168;49.036;7.690;2023-07-02T00:37:29;15.90;99.90
16128;DHT22;8168;49.036;7.690;2023-07-02T00:39:59;15.80;99.90
16128;DHT22;8168;49.036;7.690;2023-07-02T00:42:30;15.80;99.90
16128;DHT22;8168;49.036;7.690;2023-07-02T00:45:01;15.80;99.90
16128;DHT22;8168;49.036;7.690;2023-07-02T00:47:35;15.70;99.90
16128;DHT22;8168;49.036;7.690;2023-07-02T00:50:06;15.70;99.90
16128;DHT22;8168;49.036;7.690;2023-07-02T00:52:39;15.80;99.90
16128;DHT22;8168;49.036;7.690;2023-07-02T00:55:10;15.80;99.90
16128;DHT22;8168;49.036;7.690;2023-07-02T00:57:40;15.80;99.90
16128;DHT22;8168;49.036;7.690;2023-07-02T01:00:12;15.80;99.90
16128;DHT22;8168;49.036;7.690;2023-07-02T01:02:53;15.70;99.90
16128;DHT22;8168;49.036;7.690;2023-07-02T01:05:28;15.80;99.90
16128;DHT22;8168;49.036;7.690;2023-07-02T01:08:05;15.80;99.90
16128;DHT22;8168;49.036;7.690;2023-07-02T01:10:36;15.70;99.90
16128;DHT22;8168;49.036;7.690;2023-07-02T01:13:14;15.70;99.90
16128;DHT22;8168;49.036;7.690;2023-07-02T01:15:45;15.80;99.90
16128;DHT22;8168;49.036;7.690;2023-07-02T01:18:16;15.80;99.90
16128;DHT22;8168;49.036;7.690;2023-07-02T01:20:47;15.90;99.90
16128;DHT22;8168;49.036;7.690;2023-07-02T01:23:18;16.00;99.90
16128;DHT22;8168;49.036;7.690;2023-07-02T01:25:51;16.00;99.90
16128;DHT22;8168;49.036;7.690;2023-07-02T01:28:22;16.10;99.90
16128;DHT22;8168;49.036;7.690;2023-07-02T01:30:54;16.10;99.90
16128;DHT22;8168;49.036;7.690;2023-07-02T01:33:25;16.20;99.90
16128;DHT22;8168;49.036;7.690;2023-07-02T01:35:56;16.20;99.90
16128;DHT22;8168;49.036;7.690;2023-07-02T01:38:26;16.20;99.90
16128;DHT22;8168;49.036;7.690;2023-07-02T01:40:58;16.30;99.90
16128;DHT22;8168;49.036;7.690;2023-07-02T01:43:28;16.20;99.90
16128;DHT22;8168;49.036;7.690;2023-07-02T01:45:59;16.30;99.90
16128;DHT22;8168;49.036;7.690;2023-07-02T01:48:31;16.40;99.90
16128;DHT22;8168;49.036;7.690;2023-07-02T01:51:02;16.40;99.90
16128;DHT22;8168;49.036;7.690;2023-07-02T01:53:33;16.40;99.90
16128;DHT22;8168;49.036;7.690;2023-07-02T01:56:03;16.40;99.90
16128;DHT22;8168;49.036;7.690;2023-07-02T01:58:34;16.40;99.90
16128;DHT22;8168;49.036;7.690;2023-07-02T02:01:05;16.40;99.90
16128;DHT22;8168;49.036;7.690;2023-07-02T02:03:35;16.40;99.90
16128;DHT22;8168;49.036;7.690;2023-07-02T02:06:06;16.30;99.90
16128;DHT22;8168;49.036;7.690;2023-07-02T02:08:36;16.40;99.90
16128;DHT22;8168;49.036;7.690;2023-07-02T02:11:07;16.40;99.90
16128;DHT22;8168;49.036;7.690;2023-07-02T02:13:37;16.40;99.90
16128;DHT22;8168;49.036;7.690;2023-07-02T02:16:08;16.30;99.90
16128;DHT22;8168;49.036;7.690;2023-07-02T02:18:39;16.40;99.90
16128;DHT22;8168;49.036;7.690;2023-07-02T02:21:09;16.40;99.90
16128;DHT22;8168;49.036;7.690;2023-07-02T02:23:40;16.30;99.90
16128;DHT22;8168;49.036;7.690;2023-07-02T02:26:10;16.30;99.90
16128;DHT22;8168;49.036;7.690;2023-07-02T02:28:42;16.30;99.90
16128;DHT22;8168;49.036;7.690;2023-07-02T02:31:13;16.30;99.90
16128;DHT22;8168;49.036;7.690;2023-07-02T02:33:44;16.30;99.90
16128;DHT22;8168;49.036;7.690;2023-07-02T02:36:14;16.30;99.90
16128;DHT22;8168;49.036;7.690;2023-07-02T02:38:46;16.30;99.90
16128;DHT22;8168;49.036;7.690;2023-07-02T02:41:16;16.40;99.90
16128;DHT22;8168;49.036;7.690;2023-07-02T02:43:47;16.30;99.90
16128;DHT22;8168;49.036;7.690;2023-07-02T02:46:21;16.30;99.90
16128;DHT22;8168;49.036;7.690;2023-07-02T02:48:52;16.30;99.90
16128;DHT22;8168;49.036;7.690;2023-07-02T02:51:23;16.30;99.90
16128;DHT22;8168;49.036;7.690;2023-07-02T02:53:54;16.40;99.90
16128;DHT22;8168;49.036;7.690;2023-07-02T02:56:24;16.30;99.90
16128;DHT22;8168;49.036;7.690;2023-07-02T02:58:55;16.20;99.90
16128;DHT22;8168;49.036;7.690;2023-07-02T03:01:25;16.20;99.90
16128;DHT22;8168;49.036;7.690;2023-07-02T03:04:01;16.20;99.90
16128;DHT22;8168;49.036;7.690;2023-07-02T03:06:31;16.20;99.90
16128;DHT22;8168;49.036;7.690;2023-07-02T03:09:02;16.20;99.90
16128;DHT22;8168;49.036;7.690;2023-07-02T03:11:33;16.10;99.90
16128;DHT22;8168;49.036;7.690;2023-07-02T03:14:06;16.10;99.90
16128;DHT22;8168;49.036;7.690;2023-07-02T03:16:37;16.10;99.90
16128;DHT22;8168;49.036;7.690;2023-07-02T03:19:08;16.00;99.90
16128;DHT22;8168;49.036;7.690;2023-07-02T03:21:38;16.00;99.90
16128;DHT22;8168;49.036;7.690;2023-07-02T03:24:09;16.00;99.90
16128;DHT22;8168;49.036;7.690;2023-07-02T03:26:44;16.00;99.90
16128;DHT22;8168;49.036;7.690;2023-07-02T03:29:15;16.00;99.90
16128;DHT22;8168;49.036;7.690;2023-07-02T03:31:50;15.90;99.90
16128;DHT22;8168;49.036;7.690;2023-07-02T03:34:21;15.90;99.90
16128;DHT22;8168;49.036;7.690;2023-07-02T03:36:55;15.80;99.90
16128;DHT22;8168;49.036;7.690;2023-07-02T03:39:25;15.80;99.90
16128;DHT22;8168;49.036;7.690;2023-07-02T03:41:56;15.80;99.90
16128;DHT22;8168;49.036;7.690;2023-07-02T03:44:26;15.80;99.90
16128;DHT22;8168;49.036;7.690;2023-07-02T03:46:57;15.80;99.90
16128;DHT22;8168;49.036;7.690;2023-07-02T03:49:28;15.70;99.90
16128;DHT22;8168;49.036;7.690;2023-07-02T03:51:59;15.70;99.90
16128;DHT22;8168;49.036;7.690;2023-07-02T03:54:30;15.70;99.90
16128;DHT22;8168;49.036;7.690;2023-07-02T03:57:00;15.70;99.90
16128;DHT22;8168;49.036;7.690;2023-07-02T03:59:34;15.70;99.90
16128;DHT22;8168;49.036;7.690;2023-07-02T04:02:05;15.80;99.90
16128;DHT22;8168;49.036;7.690;2023-07-02T04:04:36;15.80;99.90
16128;DHT22;8168;49.036;7.690;2023-07-02T04:07:06;15.70;99.90
16128;DHT22;8168;49.036;7.690;2023-07-02T04:09:37;15.70;99.90
16128;DHT22;8168;49.036;7.690;2023-07-02T04:12:08;15.70;99.90
16128;DHT22;8168;49.036;7.690;2023-07-02T04:14:38;15.70;99.90
16128;DHT22;8168;49.036;7.690;2023-07-02T04:17:09;15.70;99.90
16128;DHT22;8168;49.036;7.690;2023-07-02T04:19:39;15.70;99.90
16128;DHT22;8168;49.036;7.690;2023-07-02T04:22:10;15.70;99.90
16128;DHT22;8168;49.036;7.690;2023-07-02T04:24:40;15.70;99.90
16128;DHT22;8168;49.036;7.690;2023-07-02T04:27:11;15.80;99.90
16128;DHT22;8168;49.036;7.690;2023-07-02T04:29:44;15.80;99.90
16128;DHT22;8168;49.036;7.690;2023-07-02T04:32:15;15.80;99.90
16128;DHT22;8168;49.036;7.690;2023-07-02T04:34:45;15.80;99.90
16128;DHT22;8168;49.036;7.690;2023-07-02T04:37:16;15.80;99.90
16128;DHT22;8168;49.036;7.690;2023-07-02T04:39:47;15.90;99.90
16128;DHT22;8168;49.036;7.690;2023-07-02T04:42:17;15.90;99.90
16128;DHT22;8168;49.036;7.690;2023-07-02T04:44:48;15.90;99.90
16128;DHT22;8168;49.036;7.690;2023-07-02T04:47:19;15.80;99.90
16128;DHT22;8168;49.036;7.690;2023-07-02T04:49:49;15.90;99.90
16128;DHT22;8168;49.036;7.690;2023-07-02T04:52:20;15.90;99.90
16128;DHT22;8168;49.036;7.690;2023-07-02T04:54:50;15.90;99.90
16128;DHT22;8168;49.036;7.690;2023-07-02T04:57:21;15.90;99.90
16128;DHT22;8168;49.036;7.690;2023-07-02T04:59:52;16.00;99.90
16128;DHT22;8168;49.036;7.690;2023-07-02T05:02:22;16.00;99.90
16128;DHT22;8168;49.036;7.690;2023-07-02T05:04:53;16.10;99.90
16128;DHT22;8168;49.036;7.690;2023-07-02T05:07:23;16.10;99.90
16128;DHT22;8168;49.036;7.690;2023-07-02T05:09:54;16.10;99.90
16128;DHT22;8168;49.036;7.690;2023-07-02T05:12:25;16.20;99.90
16128;DHT22;8168;49.036;7.690;2023-07-02T05:14:55;16.20;99.90
16128;DHT22;8168;49.036;7.690;2023-07-02T05:17:26;16.30;99.90
16128;DHT22;8168;49.036;7.690;2023-07-02T05:19:56;16.40;99.90
16128;DHT22;8168;49.036;7.690;2023-07-02T05:22:27;16.40;99.90
16128;DHT22;8168;49.036;7.690;2023-07-02T05:24:58;16.40;99.90
16128;DHT22;8168;49.036;7.690;2023-07-02T05:27:28;16.50;99.90
16128;DHT22;8168;49.036;7.690;2023-07-02T05:29:59;16.60;99.90
16128;DHT22;8168;49.036;7.690;2023-07-02T05:32:30;16.60;99.90
16128;DHT22;8168;49.036;7.690;2023-07-02T05:35:00;16.70;99.90
16128;DHT22;8168;49.036;7.690;2023-07-02T05:37:31;16.70;99.90
16128;DHT22;8168;49.036;7.690;2023-07-02T05:40:01;16.70;99.90
16128;DHT22;8168;49.036;7.690;2023-07-02T05:42:32;16.80;99.90
16128;DHT22;8168;49.036;7.690;2023-07-02T05:45:03;16.80;99.90
16128;DHT22;8168;49.036;7.690;2023-07-02T05:47:33;16.80;99.90
16128;DHT22;8168;49.036;7.690;2023-07-02T05:50:06;16.80;99.90
16128;DHT22;8168;49.036;7.690;2023-07-02T05:52:37;16.80;99.90
16128;DHT22;8168;49.036;7.690;2023-07-02T05:55:08;16.80;99.90
16128;DHT22;8168;49.036;7.690;2023-07-02T05:57:42;16.80;99.90
16128;DHT22;8168;49.036;7.690;2023-07-02T06:00:12;16.90;99.90
16128;DHT22;8168;49.036;7.690;2023-07-02T06:02:46;16.90;99.90
16128;DHT22;8168;49.036;7.690;2023-07-02T06:05:17;16.90;99.90
16128;DHT22;8168;49.036;7.690;2023-07-02T06:07:47;16.90;99.90
16128;DHT22;8168;49.036;7.690;2023-07-02T06:10:18;17.00;99.90
16128;DHT22;8168;49.036;7.690;2023-07-02T06:12:48;17.00;99.90
16128;DHT22;8168;49.036;7.690;2023-07-02T06:15:19;17.10;99.90
16128;DHT22;8168;49.036;7.690;2023-07-02T06:17:50;17.10;99.90
16128;DHT22;8168;49.036;7.690;2023-07-02T06:20:20;17.10;99.90
16128;DHT22;8168;49.036;7.690;2023-07-02T06:22:51;17.20;99.90
16128;DHT22;8168;49.036;7.690;2023-07-02T06:25:22;17.20;99.90
16128;DHT22;8168;49.036;7.690;2023-07-02T06:27:52;17.20;99.90
16128;DHT22;8168;49.036;7.690;2023-07-02T06:30:26;17.20;99.90
16128;DHT22;8168;49.036;7.690;2023-07-02T06:32:56;17.30;99.90
16128;DHT22;8168;49.036;7.690;2023-07-02T06:35:27;17.30;99.90
16128;DHT22;8168;49.036;7.690;2023-07-02T06:37:58;15.10;99.90
16128;DHT22;8168;49.036;7.690;2023-07-02T06:40:28;17.30;99.90
16128;DHT22;8168;49.036;7.690;2023-07-02T06:42:59;17.40;99.90
16128;DHT22;8168;49.036;7.690;2023-07-02T06:45:29;17.50;99.90
16128;DHT22;8168;49.036;7.690;2023-07-02T06:48:00;17.50;99.90
16128;DHT22;8168;49.036;7.690;2023-07-02T06:50:30;17.50;99.90
16128;DHT22;8168;49.036;7.690;2023-07-02T06:53:01;17.60;99.90
16128;DHT22;8168;49.036;7.690;2023-07-02T06:55:32;17.60;99.90
16128;DHT22;8168;49.036;7.690;2023-07-02T06:58:04;17.60;99.90
16128;DHT22;8168;49.036;7.690;2023-07-02T07:00:35;17.60;99.90
16128;DHT22;8168;49.036;7.690;2023-07-02T07:03:06;17.60;99.90
16128;DHT22;8168;49.036;7.690;2023-07-02T07:05:37;17.70;99.90
16128;DHT22;8168;49.036;7.690;2023-07-02T07:08:08;17.70;99.90
16128;DHT22;8168;49.036;7.690;2023-07-02T07:10:38;17.80;99.90
16128;DHT22;8168;49.036;7.690;2023-07-02T07:13:09;17.90;99.90
16128;DHT22;8168;49.036;7.690;2023-07-02T07:15:39;18.00;99.90
16128;DHT22;8168;49.036;7.690;2023-07-02T07:18:10;18.00;99.90
16128;DHT22;8168;49.036;7.690;2023-07-02T07:20:41;18.10;99.90
16128;DHT22;8168;49.036;7.690;2023-07-02T07:23:12;18.20;99.90
16128;DHT22;8168;49.036;7.690;2023-07-02T07:25:43;18.30;99.90
16128;DHT22;8168;49.036;7.690;2023-07-02T07:28:13;18.40;99.90
16128;DHT22;8168;49.036;7.690;2023-07-02T07:30:47;18.30;99.90
16128;DHT22;8168;49.036;7.690;2023-07-02T07:33:17;18.10;99.90
16128;DHT22;8168;49.036;7.690;2023-07-02T07:35:48;18.20;99.90
16128;DHT22;8168;49.036;7.690;2023-07-02T07:38:19;18.20;99.90
16128;DHT22;8168;49.036;7.690;2023-07-02T07:40:49;18.30;99.90
16128;DHT22;8168;49.036;7.690;2023-07-02T07:43:20;18.30;99.90
16128;DHT22;8168;49.036;7.690;2023-07-02T07:45:51;18.40;99.90
16128;DHT22;8168;49.036;7.690;2023-07-02T07:48:21;18.40;99.90
16128;DHT22;8168;49.036;7.690;2023-07-02T07:50:52;18.50;99.90
16128;DHT22;8168;49.036;7.690;2023-07-02T07:53:23;18.50;99.90
16128;DHT22;8168;49.036;7.690;2023-07-02T07:55:53;18.50;99.90
16128;DHT22;8168;49.036;7.690;2023-07-02T07:58:25;18.40;99.90
16128;DHT22;8168;49.036;7.690;2023-07-02T08:00:56;18.60;99.90
16128;DHT22;8168;49.036;7.690;2023-07-02T08:03:26;18.60;99.90
16128;DHT22;8168;49.036;7.690;2023-07-02T08:05:57;18.60;99.90
16128;DHT22;8168;49.036;7.690;2023-07-02T08:08:28;18.60;99.90
16128;DHT22;8168;49.036;7.690;2023-07-02T08:10:58;18.60;99.90
16128;DHT22;8168;49.036;7.690;2023-07-02T08:13:29;18.50;99.90
16128;DHT22;8168;49.036;7.690;2023-07-02T08:15:59;18.40;99.90
16128;DHT22;8168;49.036;7.690;2023-07-02T08:18:30;18.50;99.90
16128;DHT22;8168;49.036;7.690;2023-07-02T08:21:00;18.60;99.90
16128;DHT22;8168;49.036;7.690;2023-07-02T08:23:31;18.70;99.90
16128;DHT22;8168;49.036;7.690;2023-07-02T08:26:02;18.70;99.90
16128;DHT22;8168;49.036;7.690;2023-07-02T08:28:33;18.90;99.90
16128;DHT22;8168;49.036;7.690;2023-07-02T08:31:04;19.00;99.90
16128;DHT22;8168;49.036;7.690;2023-07-02T08:33:34;19.00;99.90
16128;DHT22;8168;49.036;7.690;2023-07-02T08:36:05;19.10;99.90
16128;DHT22;8168;49.036;7.690;2023-07-02T08:38:36;19.20;99.90
16128;DHT22;8168;49.036;7.690;2023-07-02T08:41:09;19.20;99.90
16128;DHT22;8168;49.036;7.690;2023-07-02T08:43:40;19.20;99.90
16128;DHT22;8168;49.036;7.690;2023-07-02T08:46:11;19.20;99.90
16128;DHT22;8168;49.036;7.690;2023-07-02T08:48:42;19.20;99.90
16128;DHT22;8168;49.036;7.690;2023-07-02T08:51:13;19.20;99.90
16128;DHT22;8168;49.036;7.690;2023-07-02T08:53:43;19.10;99.90
16128;DHT22;8168;49.036;7.690;2023-07-02T08:56:14;19.10;99.90
16128;DHT22;8168;49.036;7.690;2023-07-02T08:58:45;19.10;99.90
16128;DHT22;8168;49.036;7.690;2023-07-02T09:01:15;19.20;99.90
16128;DHT22;8168;49.036;7.690;2023-07-02T09:03:46;19.10;99.90
16128;DHT22;8168;49.036;7.690;2023-07-02T09:06:18;19.10;99.90
16128;DHT22;8168;49.036;7.690;2023-07-02T09:08:48;19.30;99.90
16128;DHT22;8168;49.036;7.690;2023-07-02T09:11:19;19.40;99.90
16128;DHT22;8168;49.036;7.690;2023-07-02T09:13:52;19.50;99.90
16128;DHT22;8168;49.036;7.690;2023-07-02T09:16:32;19.70;99.90
16128;DHT22;8168;49.036;7.690;2023-07-02T09:19:08;19.90;99.90
16128;DHT22;8168;49.036;7.690;2023-07-02T09:26:45;20.10;99.90
16128;DHT22;8168;49.036;7.690;2023-07-02T09:32:04;20.20;99.90
16128;DHT22;8168;49.036;7.690;2023-07-02T09:34:38;20.40;99.90
16128;DHT22;8168;49.036;7.690;2023-07-02T09:37:11;20.30;99.90
16128;DHT22;8168;49.036;7.690;2023-07-02T09:39:42;20.30;99.90
16128;DHT22;8168;49.036;7.690;2023-07-02T09:42:13;20.30;99.90
16128;DHT22;8168;49.036;7.690;2023-07-02T09:44:44;20.40;99.90
16128;DHT22;8168;49.036;7.690;2023-07-02T09:47:18;20.60;99.90
16128;DHT22;8168;49.036;7.690;2023-07-02T09:49:53;20.70;99.90
16128;DHT22;8168;49.036;7.690;2023-07-02T09:52:25;20.70;99.90
16128;DHT22;8168;49.036;7.690;2023-07-02T09:54:58;20.90;99.90
16128;DHT22;8168;49.036;7.690;2023-07-02T09:57:28;21.00;99.90
16128;DHT22;8168;49.036;7.690;2023-07-02T10:00:02;20.90;99.00
16128;DHT22;8168;49.036;7.690;2023-07-02T10:02:33;20.80;97.50
16128;DHT22;8168;49.036;7.690;2023-07-02T10:05:03;20.70;98.30
16128;DHT22;8168;49.036;7.690;2023-07-02T10:07:35;20.70;98.80
16128;DHT22;8168;49.036;7.690;2023-07-02T10:10:06;20.70;98.90
16128;DHT22;8168;49.036;7.690;2023-07-02T10:12:46;20.80;99.10
16128;DHT22;8168;49.036;7.690;2023-07-02T10:15:27;20.80;98.70
16128;DHT22;8168;49.036;7.690;2023-07-02T10:18:01;21.00;99.30
16128;DHT22;8168;49.036;7.690;2023-07-02T10:20:38;21.20;99.40
16128;DHT22;8168;49.036;7.690;2023-07-02T10:23:09;21.30;96.90
16128;DHT22;8168;49.036;7.690;2023-07-02T10:25:40;21.40;97.40
16128;DHT22;8168;49.036;7.690;2023-07-02T10:28:18;21.40;97.30
16128;DHT22;8168;49.036;7.690;2023-07-02T10:30:49;21.60;96.20
16128;DHT22;8168;49.036;7.690;2023-07-02T10:33:22;21.80;95.90
16128;DHT22;8168;49.036;7.690;2023-07-02T10:35:54;22.00;95.90
16128;DHT22;8168;49.036;7.690;2023-07-02T10:38:25;22.10;95.00
16128;DHT22;8168;49.036;7.690;2023-07-02T10:40:58;22.20;94.00
16128;DHT22;8168;49.036;7.690;2023-07-02T10:43:30;22.10;93.80
16128;DHT22;8168;49.036;7.690;2023-07-02T10:46:02;22.00;93.90
16128;DHT22;8168;49.036;7.690;2023-07-02T10:48:33;21.80;94.30
16128;DHT22;8168;49.036;7.690;2023-07-02T10:51:11;21.70;94.70
16128;DHT22;8168;49.036;7.690;2023-07-02T10:53:43;21.60;94.00
16128;DHT22;8168;49.036;7.690;2023-07-02T10:56:17;21.50;94.40
16128;DHT22;8168;49.036;7.690;2023-07-02T10:58:47;21.50;94.60
16128;DHT22;8168;49.036;7.690;2023-07-02T11:01:25;21.50;94.30
16128;DHT22;8168;49.036;7.690;2023-07-02T11:03:58;21.70;94.70
16128;DHT22;8168;49.036;7.690;2023-07-02T11:06:30;21.80;94.60
16128;DHT22;8168;49.036;7.690;2023-07-02T11:09:02;22.00;93.60
16128;DHT22;8168;49.036;7.690;2023-07-02T11:11:34;22.20;94.50
16128;DHT22;8168;49.036;7.690;2023-07-02T11:14:04;22.30;94.60
16128;DHT22;8168;49.036;7.690;2023-07-02T11:16:35;22.40;93.50
16128;DHT22;8168;49.036;7.690;2023-07-02T11:19:07;22.30;93.40
16128;DHT22;8168;49.036;7.690;2023-07-02T11:21:49;22.20;93.80
16128;DHT22;8168;49.036;7.690;2023-07-02T11:24:27;22.10;93.20
16128;DHT22;8168;49.036;7.690;2023-07-02T11:27:00;22.00;93.80
16128;DHT22;8168;49.036;7.690;2023-07-02T11:29:32;21.90;92.90
16128;DHT22;8168;49.036;7.690;2023-07-02T11:32:10;22.00;93.10
16128;DHT22;8168;49.036;7.690;2023-07-02T11:34:41;22.10;92.20
16128;DHT22;8168;49.036;7.690;2023-07-02T11:37:12;22.30;92.60
16128;DHT22;8168;49.036;7.690;2023-07-02T11:39:43;22.40;93.00
16128;DHT22;8168;49.036;7.690;2023-07-02T11:42:14;22.40;92.50
16128;DHT22;8168;49.036;7.690;2023-07-02T11:44:44;22.20;92.10
16128;DHT22;8168;49.036;7.690;2023-07-02T11:47:15;22.20;92.10
16128;DHT22;8168;49.036;7.690;2023-07-02T11:49:46;22.20;92.00
16128;DHT22;8168;49.036;7.690;2023-07-02T11:52:16;22.20;92.10
16128;DHT22;8168;49.036;7.690;2023-07-02T11:54:47;22.20;92.50
16128;DHT22;8168;49.036;7.690;2023-07-02T11:57:18;22.30;92.80
16128;DHT22;8168;49.036;7.690;2023-07-02T11:59:50;22.40;90.90
16128;DHT22;8168;49.036;7.690;2023-07-02T12:02:22;22.50;91.80
16128;DHT22;8168;49.036;7.690;2023-07-02T12:04:53;22.50;91.30
16128;DHT22;8168;49.036;7.690;2023-07-02T12:07:23;22.50;89.80
16128;DHT22;8168;49.036;7.690;2023-07-02T12:09:55;22.40;90.00
16128;DHT22;8168;49.036;7.690;2023-07-02T12:12:26;22.40;89.30
16128;DHT22;8168;49.036;7.690;2023-07-02T12:14:57;22.40;90.10
16128;DHT22;8168;49.036;7.690;2023-07-02T12:17:27;22.40;90.30
16128;DHT22;8168;49.036;7.690;2023-07-02T12:19:58;22.50;89.70
16128;DHT22;8168;49.036;7.690;2023-07-02T12:22:28;22.60;88.40
16128;DHT22;8168;49.036;7.690;2023-07-02T12:24:59;22.80;89.00
16128;DHT22;8168;49.036;7.690;2023-07-02T12:27:30;23.00;88.30
16128;DHT22;8168;49.036;7.690;2023-07-02T12:30:00;23.20;85.90
16128;DHT22;8168;49.036;7.690;2023-07-02T12:32:31;23.30;86.40
16128;DHT22;8168;49.036;7.690;2023-07-02T12:35:02;23.40;84.00
16128;DHT22;8168;49.036;7.690;2023-07-02T12:37:33;23.40;85.40
16128;DHT22;8168;49.036;7.690;2023-07-02T12:40:04;23.60;83.80
16128;DHT22;8168;49.036;7.690;2023-07-02T12:42:35;23.60;84.80
16128;DHT22;8168;49.036;7.690;2023-07-02T12:45:06;23.50;83.00
16128;DHT22;8168;49.036;7.690;2023-07-02T12:47:37;23.50;84.10
16128;DHT22;8168;49.036;7.690;2023-07-02T12:50:09;23.60;83.30
16128;DHT22;8168;49.036;7.690;2023-07-02T12:52:40;23.60;80.90
16128;DHT22;8168;49.036;7.690;2023-07-02T12:55:10;23.50;78.70
16128;DHT22;8168;49.036;7.690;2023-07-02T12:57:41;23.50;79.90
16128;DHT22;8168;49.036;7.690;2023-07-02T13:00:12;23.60;78.90
16128;DHT22;8168;49.036;7.690;2023-07-02T13:02:43;23.70;79.30
16128;DHT22;8168;49.036;7.690;2023-07-02T13:05:13;23.70;78.90
16128;DHT22;8168;49.036;7.690;2023-07-02T13:07:44;23.80;79.70
16128;DHT22;8168;49.036;7.690;2023-07-02T13:10:15;23.80;79.30
16128;DHT22;8168;49.036;7.690;2023-07-02T13:12:45;23.90;79.60
16128;DHT22;8168;49.036;7.690;2023-07-02T13:15:16;23.90;81.00
16128;DHT22;8168;49.036;7.690;2023-07-02T13:17:46;23.80;79.60
16128;DHT22;8168;49.036;7.690;2023-07-02T13:20:17;23.80;79.30
16128;DHT22;8168;49.036;7.690;2023-07-02T13:22:48;23.80;78.80
16128;DHT22;8168;49.036;7.690;2023-07-02T13:25:18;23.80;79.80
16128;DHT22;8168;49.036;7.690;2023-07-02T13:27:49;23.90;80.00
16128;DHT22;8168;49.036;7.690;2023-07-02T13:30:20;24.00;78.50
16128;DHT22;8168;49.036;7.690;2023-07-02T13:32:50;24.10;78.40
16128;DHT22;8168;49.036;7.690;2023-07-02T13:35:21;24.00;75.90
16128;DHT22;8168;49.036;7.690;2023-07-02T13:37:53;23.90;75.70
16128;DHT22;8168;49.036;7.690;2023-07-02T13:40:23;23.80;76.50
16128;DHT22;8168;49.036;7.690;2023-07-02T13:42:54;23.90;77.00
16128;DHT22;8168;49.036;7.690;2023-07-02T13:45:26;24.00;75.40
16128;DHT22;8168;49.036;7.690;2023-07-02T13:47:56;24.00;75.70
16128;DHT22;8168;49.036;7.690;2023-07-02T13:50:27;24.00;74.10
16128;DHT22;8168;49.036;7.690;2023-07-02T13:52:58;24.00;75.50
16128;DHT22;8168;49.036;7.690;2023-07-02T13:55:28;24.00;77.20
16128;DHT22;8168;49.036;7.690;2023-07-02T13:58:00;24.10;75.90
16128;DHT22;8168;49.036;7.690;2023-07-02T14:00:31;24.20;73.40
16128;DHT22;8168;49.036;7.690;2023-07-02T14:03:02;24.20;76.30
16128;DHT22;8168;49.036;7.690;2023-07-02T14:05:33;24.20;75.40
16128;DHT22;8168;49.036;7.690;2023-07-02T14:08:03;24.20;74.20
16128;DHT22;8168;49.036;7.690;2023-07-02T14:10:34;24.80;74.00
16128;DHT22;8168;49.036;7.690;2023-07-02T14:13:04;24.10;74.50
16128;DHT22;8168;49.036;7.690;2023-07-02T14:15:35;24.20;73.80
16128;DHT22;8168;49.036;7.690;2023-07-02T14:18:06;24.30;74.30
16128;DHT22;8168;49.036;7.690;2023-07-02T14:20:36;24.10;72.60
16128;DHT22;8168;49.036;7.690;2023-07-02T14:23:07;24.00;73.60
16128;DHT22;8168;49.036;7.690;2023-07-02T14:25:38;24.10;73.10
16128;DHT22;8168;49.036;7.690;2023-07-02T14:28:09;24.10;73.90
16128;DHT22;8168;49.036;7.690;2023-07-02T14:30:39;24.30;73.10
16128;DHT22;8168;49.036;7.690;2023-07-02T14:33:14;24.30;71.90
16128;DHT22;8168;49.036;7.690;2023-07-02T14:35:44;24.30;70.70
16128;DHT22;8168;49.036;7.690;2023-07-02T14:38:16;24.40;70.90
16128;DHT22;8168;49.036;7.690;2023-07-02T14:40:48;24.30;71.00
16128;DHT22;8168;49.036;7.690;2023-07-02T14:43:19;24.30;72.20
16128;DHT22;8168;49.036;7.690;2023-07-02T14:45:51;24.30;72.30
16128;DHT22;8168;49.036;7.690;2023-07-02T14:48:22;24.20;70.40
16128;DHT22;8168;49.036;7.690;2023-07-02T14:50:54;24.20;70.50
16128;DHT22;8168;49.036;7.690;2023-07-02T14:53:27;24.20;71.00
16128;DHT22;8168;49.036;7.690;2023-07-02T14:56:00;24.20;72.00
16128;DHT22;8168;49.036;7.690;2023-07-02T14:58:30;24.30;71.40
16128;DHT22;8168;49.036;7.690;2023-07-02T15:01:01;24.20;70.10
16128;DHT22;8168;49.036;7.690;2023-07-02T15:03:32;24.10;70.50
16128;DHT22;8168;49.036;7.690;2023-07-02T15:06:11;24.00;70.70
16128;DHT22;8168;49.036;7.690;2023-07-02T15:08:43;24.00;70.90
16128;DHT22;8168;49.036;7.690;2023-07-02T15:11:15;24.00;69.50
16128;DHT22;8168;49.036;7.690;2023-07-02T15:13:45;23.90;69.00
16128;DHT22;8168;49.036;7.690;2023-07-02T15:16:16;23.80;70.90
16128;DHT22;8168;49.036;7.690;2023-07-02T15:18:47;24.00;69.50
16128;DHT22;8168;49.036;7.690;2023-07-02T15:21:17;23.80;69.50
16128;DHT22;8168;49.036;7.690;2023-07-02T15:23:49;23.80;71.70
16128;DHT22;8168;49.036;7.690;2023-07-02T15:26:19;24.00;72.10
16128;DHT22;8168;49.036;7.690;2023-07-02T15:28:50;24.10;71.70
16128;DHT22;8168;49.036;7.690;2023-07-02T15:31:21;24.20;70.40
16128;DHT22;8168;49.036;7.690;2023-07-02T15:33:51;24.20;70.90
16128;DHT22;8168;49.036;7.690;2023-07-02T15:36:22;24.10;71.10
16128;DHT22;8168;49.036;7.690;2023-07-02T15:38:52;24.10;72.20
16128;DHT22;8168;49.036;7.690;2023-07-02T15:41:23;24.10;72.80
16128;DHT22;8168;49.036;7.690;2023-07-02T15:43:54;24.10;71.70
16128;DHT22;8168;49.036;7.690;2023-07-02T15:46:25;24.00;71.00
16128;DHT22;8168;49.036;7.690;2023-07-02T15:48:57;24.00;71.00
16128;DHT22;8168;49.036;7.690;2023-07-02T15:51:30;23.80;72.50
16128;DHT22;8168;49.036;7.690;2023-07-02T15:54:06;23.80;72.60
16128;DHT22;8168;49.036;7.690;2023-07-02T15:56:38;23.90;73.40
16128;DHT22;8168;49.036;7.690;2023-07-02T15:59:08;24.00;71.50
16128;DHT22;8168;49.036;7.690;2023-07-02T16:01:39;23.90;71.30
16128;DHT22;8168;49.036;7.690;2023-07-02T16:04:09;23.80;70.80
16128;DHT22;8168;49.036;7.690;2023-07-02T16:06:40;23.70;71.20
16128;DHT22;8168;49.036;7.690;2023-07-02T16:09:11;23.70;71.70
16128;DHT22;8168;49.036;7.690;2023-07-02T16:11:42;23.70;70.90
16128;DHT22;8168;49.036;7.690;2023-07-02T16:14:15;23.70;72.10
16128;DHT22;8168;49.036;7.690;2023-07-02T16:16:48;23.70;71.00
16128;DHT22;8168;49.036;7.690;2023-07-02T16:19:24;23.70;71.80